Time;durP1;ratioP1;P1;durP2;ratioP2;P2;SDS_P1;SDS_P2;PMS_P1;PMS_P2;Temp;Humidity;BMP_temperature;BMP_pressure;BME280_temperature;BME280_humidity;BME280_pressure;Samples;Min_cycle;Max_cycle;Signal;HPM_P1;HPM_P2
2021/07/05 00:01:51;;;;;;;17.02;11.15;;;;;;;14.69;80.99;99829.81;10352293;28;20311;-72
2021/07/05 00:06:55;;;;;;;17.00;10.10;;;;;;;14.60;80.90;99837.91;10350230;28;20486;-72
2021/07/05 00:11:59;;;;;;;18.45;9.45;;;;;;;14.61;81.05;99830.63;10353454;28;20595;-73
2021/07/05 00:17:02;;;;;;;16.52;9.38;;;;;;;14.53;80.95;99828.75;10350384;28;20234;-72
2021/07/05 00:22:07;;;;;;;14.35;9.13;;;;;;;14.62;81.23;99831.47;10353356;28;20902;-72
2021/07/05 00:27:10;;;;;;;14.82;8.73;;;;;;;14.61;80.64;99830.63;10351878;28;20271;-72
2021/07/05 00:32:13;;;;;;;15.23;9.45;;;;;;;14.53;81.22;99838.72;10366937;28;20707;-73
2021/07/05 00:37:17;;;;;;;16.58;9.20;;;;;;;14.51;81.18;99838.88;10351171;28;20254;-72
2021/07/05 00:42:20;;;;;;;15.38;7.90;;;;;;;14.55;80.65;99832.13;10354128;28;20234;-73
2021/07/05 00:47:23;;;;;;;13.02;8.02;;;;;;;14.55;80.88;99826.72;10347385;28;20253;-73
2021/07/05 00:52:28;;;;;;;13.35;7.60;;;;;;;14.48;80.72;99819.44;10350157;28;20242;-72
2021/07/05 00:57:31;;;;;;;11.73;8.60;;;;;;;14.52;80.65;99815.41;10350230;28;20742;-72
2021/07/05 01:02:34;;;;;;;10.95;7.68;;;;;;;14.47;80.94;99817.75;10351075;28;20486;-72
2021/07/05 01:07:39;;;;;;;11.05;7.85;;;;;;;14.50;80.66;99806.59;10349840;28;20241;-73
2021/07/05 01:12:44;;;;;;;11.07;6.97;;;;;;;14.50;80.53;99812.00;10350787;28;20285;-73
2021/07/05 01:17:48;;;;;;;12.65;6.85;;;;;;;14.46;80.58;99805.25;10350387;28;20380;-72
2021/07/05 01:22:53;;;;;;;10.07;6.57;;;;;;;14.36;80.12;99803.47;10350712;28;20253;-72
2021/07/05 01:27:57;;;;;;;10.85;6.22;;;;;;;14.31;79.41;99807.69;10351356;28;20234;-72
2021/07/05 01:33:03;;;;;;;10.48;6.10;;;;;;;14.33;79.71;99808.38;10348234;28;20257;-72
2021/07/05 01:38:12;;;;;;;9.73;5.70;;;;;;;14.33;79.55;99801.13;10348143;28;21368;-72
2021/07/05 01:43:15;;;;;;;10.30;5.28;;;;;;;14.31;79.40;99811.22;10349932;28;20226;-72
2021/07/05 01:48:18;;;;;;;8.95;5.25;;;;;;;14.26;79.23;99793.81;10349363;28;20734;-72
2021/07/05 01:53:22;;;;;;;8.02;5.00;;;;;;;14.34;79.45;99797.41;10348156;28;20723;-72
2021/07/05 01:58:25;;;;;;;10.73;6.40;;;;;;;14.37;80.43;99793.53;10347002;28;20245;-72
2021/07/05 02:03:28;;;;;;;9.90;6.00;;;;;;;14.31;80.52;99797.72;10365923;28;20242;-72
2021/07/05 02:08:33;;;;;;;9.40;6.07;;;;;;;14.27;81.32;99790.97;10349063;28;20238;-73
2021/07/05 02:13:38;;;;;;;8.75;5.55;;;;;;;14.31;81.90;99792.31;10347300;28;20238;-73
2021/07/05 02:18:41;;;;;;;6.82;4.93;;;;;;;14.31;81.81;99781.50;10345913;28;20699;-72
2021/07/05 02:23:45;;;;;;;7.05;4.32;;;;;;;14.24;82.02;99782.34;10349784;28;20242;-71
2021/07/05 02:28:48;;;;;;;11.20;5.40;;;;;;;14.14;82.42;99787.88;10347583;28;20265;-72
2021/07/05 02:33:51;;;;;;;9.98;4.55;;;;;;;14.07;82.31;99787.69;10348792;28;20317;-72
2021/07/05 02:38:56;;;;;;;7.50;5.00;;;;;;;13.99;82.50;99778.66;10349734;28;21548;-71
2021/07/05 02:43:59;;;;;;;14.98;5.05;;;;;;;13.95;82.58;99778.16;10346961;28;20249;-73
2021/07/05 02:49:02;;;;;;;10.85;5.05;;;;;;;13.88;82.10;99756.38;10346926;28;20222;-71
2021/07/05 02:54:07;;;;;;;8.30;5.15;;;;;;;13.92;82.63;99762.28;10347051;28;20234;-72
2021/07/05 02:59:10;;;;;;;9.45;5.63;;;;;;;13.90;82.52;99759.75;10348349;28;20238;-73
2021/07/05 03:04:13;;;;;;;12.50;5.10;;;;;;;13.85;82.39;99763.91;10359005;28;20238;-71
2021/07/05 03:09:17;;;;;;;12.38;4.57;;;;;;;13.83;82.59;99765.97;10346207;28;20238;-71
2021/07/05 03:14:20;;;;;;;7.60;4.80;;;;;;;13.74;82.28;99765.06;10347522;28;20269;-72
2021/07/05 03:19:23;;;;;;;9.38;5.00;;;;;;;13.66;82.27;99757.75;10361784;28;20652;-72
2021/07/05 03:24:27;;;;;;;11.45;5.25;;;;;;;13.58;82.43;99763.09;10346005;28;20238;-72
2021/07/05 03:29:30;;;;;;;10.90;5.15;;;;;;;13.56;82.47;99762.41;10353465;28;20234;-72
2021/07/05 03:34:33;;;;;;;9.32;5.03;;;;;;;13.58;82.36;99762.28;10349672;28;20301;-72
2021/07/05 03:39:38;;;;;;;12.73;5.40;;;;;;;13.56;82.51;99758.88;10352381;28;20230;-73
2021/07/05 03:44:41;;;;;;;11.60;5.70;;;;;;;13.57;82.59;99764.09;10354049;28;20787;-72
2021/07/05 03:49:44;;;;;;;8.65;4.72;;;;;;;13.53;82.52;99753.81;10355235;28;20292;-73
2021/07/05 03:54:48;;;;;;;8.50;4.57;;;;;;;13.55;82.71;99762.56;10350813;28;20238;-73
2021/07/05 03:59:51;;;;;;;9.48;5.55;;;;;;;13.62;82.38;99755.53;10351536;28;20746;-72
2021/07/05 04:04:56;;;;;;;10.02;5.35;;;;;;;13.59;82.05;99755.84;10349427;28;20344;-72
2021/07/05 04:10:00;;;;;;;12.65;5.60;;;;;;;13.66;81.82;99748.81;10353788;28;20226;-73
2021/07/05 04:15:04;;;;;;;9.18;5.45;;;;;;;13.74;82.01;99761.50;10351530;28;21404;-73
2021/07/05 04:20:12;;;;;;;10.02;5.60;;;;;;;13.81;81.27;99774.19;10352322;28;20242;-73
2021/07/05 04:25:21;;;;;;;9.70;5.93;;;;;;;13.85;81.62;99769.31;10352707;28;20616;-73
2021/07/05 04:30:24;;;;;;;13.40;6.30;;;;;;;13.91;81.23;99777.63;10351712;28;20249;-73
2021/07/05 04:35:28;;;;;;;7.68;4.70;;;;;;;13.95;80.84;99786.25;10351622;28;20230;-73
2021/07/05 04:40:35;;;;;;;7.55;5.13;;;;;;;13.99;80.17;99786.75;10354579;28;20328;-72
2021/07/05 04:45:39;;;;;;;8.63;5.05;;;;;;;14.14;80.30;99783.31;10349696;28;20230;-72
2021/07/05 04:50:42;;;;;;;8.55;5.00;;;;;;;14.31;80.06;99775.28;10350630;28;20237;-72
2021/07/05 04:55:47;;;;;;;8.43;4.32;;;;;;;14.47;79.22;99769.94;10339320;28;21472;-72
2021/07/05 05:00:50;;;;;;;7.03;3.38;;;;;;;14.54;77.89;99771.00;10309298;28;20235;-71
2021/07/05 05:05:53;;;;;;;8.10;3.90;;;;;;;14.65;77.72;99769.84;10309043;28;20239;-72
2021/07/05 05:10:57;;;;;;;5.85;3.13;;;;;;;14.80;77.35;99770.03;10308120;28;20754;-72
2021/07/05 05:16:00;;;;;;;8.15;2.60;;;;;;;14.93;76.38;99761.44;10310459;28;20235;-72
2021/07/05 05:21:03;;;;;;;5.15;2.53;;;;;;;15.06;75.71;99750.97;10308722;28;21405;-72
2021/07/05 05:26:08;;;;;;;2.88;2.17;;;;;;;15.26;74.76;99752.28;10309736;28;20230;-73
2021/07/05 05:31:11;;;;;;;2.70;2.13;;;;;;;15.40;73.58;99745.38;10310520;28;20615;-72
2021/07/05 05:36:14;;;;;;;5.95;2.10;;;;;;;15.54;73.24;99730.28;10308379;28;21741;-72
2021/07/05 05:41:18;;;;;;;4.03;2.40;;;;;;;15.74;73.37;99729.91;10306800;28;20246;-72
2021/07/05 05:46:21;;;;;;;4.07;2.42;;;;;;;16.01;72.66;99718.63;10308368;28;20594;-72
2021/07/05 05:51:27;;;;;;;7.45;2.60;;;;;;;16.36;72.30;99714.59;10307751;28;20716;-72
2021/07/05 05:56:32;;;;;;;3.67;2.60;;;;;;;16.53;71.43;99722.63;10307139;28;20234;-72
2021/07/05 06:01:37;;;;;;;3.97;2.13;;;;;;;16.71;70.54;99714.22;10308614;28;20223;-72
2021/07/05 06:06:40;;;;;;;4.15;2.58;;;;;;;17.18;69.65;99715.91;10306878;28;20239;-72
2021/07/05 06:11:44;;;;;;;3.88;2.00;;;;;;;17.39;69.02;99716.03;10307293;28;20493;-72
2021/07/05 06:16:47;;;;;;;3.97;2.28;;;;;;;17.82;68.27;99727.09;10310023;28;21469;-72
2021/07/05 06:21:50;;;;;;;3.90;2.60;;;;;;;17.63;68.30;99725.78;10313263;28;20312;-73
2021/07/05 06:26:54;;;;;;;4.28;2.45;;;;;;;17.86;67.62;99728.41;10304606;28;20238;-72
2021/07/05 06:31:58;;;;;;;3.75;2.38;;;;;;;17.48;68.25;99733.09;10307438;28;20258;-72
2021/07/05 06:37:01;;;;;;;3.33;3.03;;;;;;;17.70;67.69;99721.31;10305198;28;20239;-72
2021/07/05 06:42:06;;;;;;;2.75;2.30;;;;;;;17.66;67.61;99727.28;10304098;28;20230;-72
2021/07/05 06:47:09;;;;;;;2.95;2.15;;;;;;;17.39;67.68;99726.06;10306449;28;20262;-73
2021/07/05 06:52:12;;;;;;;3.20;2.08;;;;;;;17.39;67.82;99731.50;10305832;28;20265;-72
2021/07/05 06:57:33;;;;;;;4.90;2.78;;;;;;;17.65;67.63;99731.88;10346168;28;20239;-73
2021/07/05 07:02:36;;;;;;;4.28;2.28;;;;;;;17.82;67.49;99729.81;10352330;28;20234;-72
2021/07/05 07:07:40;;;;;;;3.17;2.30;;;;;;;17.81;67.36;99730.03;10352060;28;20237;-72
2021/07/05 07:12:48;;;;;;;3.67;2.40;;;;;;;17.73;67.88;99722.78;10353346;28;20234;-73
2021/07/05 07:18:07;;;;;;;5.22;2.90;;;;;;;17.28;69.56;99724.63;10352404;28;20737;-73
2021/07/05 07:23:10;;;;;;;3.55;2.65;;;;;;;16.59;73.79;99730.03;10353621;28;20888;-72
2021/07/05 07:28:14;;;;;;;4.28;2.63;;;;;;;15.65;77.97;99737.22;10354341;28;20231;-72
2021/07/05 07:33:17;;;;;;;8.45;3.15;;;;;;;15.29;80.72;99763.78;10354525;28;20227;-73
2021/07/05 07:38:22;;;;;;;4.15;3.22;;;;;;;14.99;83.49;99753.47;10353697;28;20603;-72
2021/07/05 07:43:26;;;;;;;4.25;3.30;;;;;;;14.85;84.94;99751.44;10353003;28;21408;-72
2021/07/05 07:48:33;;;;;;;4.10;3.58;;;;;;;15.01;85.73;99746.03;10351455;28;20242;-72
2021/07/05 07:53:36;;;;;;;6.85;3.88;;;;;;;15.28;85.93;99754.84;10343915;28;20243;-73
2021/07/05 07:58:40;;;;;;;6.72;4.38;;;;;;;15.36;85.99;99759.41;10315719;28;20241;-72
2021/07/05 08:03:43;;;;;;;7.35;4.45;;;;;;;15.60;85.74;99761.25;10312488;28;20273;-72
2021/07/05 08:08:49;;;;;;;4.22;3.45;;;;;;;15.14;85.10;99769.03;10324081;28;20238;-72
2021/07/05 08:13:53;;;;;;;5.32;3.40;;;;;;;14.80;85.41;99749.22;10340381;28;20241;-72
2021/07/05 08:18:56;;;;;;;6.22;3.60;;;;;;;14.96;85.68;99753.81;10352384;28;20230;-71
2021/07/05 08:23:59;;;;;;;4.00;3.13;;;;;;;15.11;85.23;99751.31;10352372;28;20304;-72
2021/07/05 08:29:04;;;;;;;4.55;2.70;;;;;;;15.17;84.47;99758.72;10353469;28;20335;-72
2021/07/05 08:34:07;;;;;;;5.38;3.08;;;;;;;15.36;84.54;99763.00;10332425;28;20239;-71
2021/07/05 08:39:10;;;;;;;3.88;2.70;;;;;;;15.24;84.58;99765.13;10327494;28;20270;-71
2021/07/05 08:44:15;;;;;;;4.47;2.75;;;;;;;15.22;84.72;99769.91;10336815;28;20923;-71
2021/07/05 08:49:19;;;;;;;3.78;2.83;;;;;;;15.33;85.01;99774.13;10310766;28;20238;-72
2021/07/05 08:54:22;;;;;;;3.70;3.00;;;;;;;15.21;84.68;99767.34;10310097;28;20234;-72
2021/07/05 08:59:26;;;;;;;5.97;3.38;;;;;;;15.13;85.68;99767.34;10311493;28;20235;-72
2021/07/05 09:04:30;;;;;;;6.93;3.60;;;;;;;15.25;86.61;99774.13;10307797;28;20247;-72
2021/07/05 09:09:34;;;;;;;6.20;4.60;;;;;;;15.28;86.10;99762.97;10308893;28;20234;-71
2021/07/05 09:14:38;;;;;;;3.83;3.28;;;;;;;15.24;86.60;99758.88;10312638;28;20325;-72
2021/07/05 09:19:42;;;;;;;5.93;4.40;;;;;;;15.40;87.13;99764.31;10339695;28;20241;-72
2021/07/05 09:24:46;;;;;;;6.40;4.90;;;;;;;15.58;87.21;99766.84;10347917;28;20245;-71
2021/07/05 09:29:50;;;;;;;6.00;4.63;;;;;;;15.29;85.94;99761.09;10352060;28;20242;-71
2021/07/05 09:34:54;;;;;;;5.15;3.65;;;;;;;15.21;87.05;99776.31;10348948;28;20588;-73
2021/07/05 09:40:13;;;;;;;2.40;2.20;;;;;;;14.93;85.36;99766.84;10349955;28;20234;-72
2021/07/05 09:45:30;;;;;;;3.25;2.33;;;;;;;15.46;84.02;99781.72;10348829;28;20240;-72
2021/07/05 09:50:34;;;;;;;2.78;2.10;;;;;;;15.70;82.21;99787.13;10350032;28;20347;-72
2021/07/05 09:55:37;;;;;;;2.95;2.50;;;;;;;15.72;81.86;99792.38;10348315;28;20234;-72
2021/07/05 10:00:42;;;;;;;1.77;1.52;;;;;;;15.73;78.35;99801.34;10347989;28;20242;-72
2021/07/05 10:05:47;;;;;;;1.70;1.45;;;;;;;16.16;77.82;99802.75;10349640;28;21433;-72
2021/07/05 10:11:04;;;;;;;2.97;1.88;;;;;;;16.24;77.81;99797.28;10350121;28;20727;-72
2021/07/05 10:16:12;;;;;;;2.58;1.73;;;;;;;17.01;73.40;99804.69;10350101;28;20269;-72
2021/07/05 10:21:15;;;;;;;1.70;1.60;;;;;;;17.18;70.44;99808.16;10349215;28;20234;-73
2021/07/05 10:26:20;;;;;;;1.50;1.40;;;;;;;17.28;71.25;99818.75;10348902;28;20249;-72
2021/07/05 10:31:25;;;;;;;1.35;1.25;;;;;;;17.15;70.58;99827.53;10348213;28;20348;-71
2021/07/05 10:36:32;;;;;;;1.50;1.20;;;;;;;17.50;68.16;99827.91;10352703;28;20241;-71
2021/07/05 10:41:38;;;;;;;1.40;1.30;;;;;;;18.34;68.46;99823.16;10357720;28;21817;-71
2021/07/05 10:46:48;;;;;;;1.80;1.48;;;;;;;19.11;62.29;99832.69;10355815;28;20643;-71
2021/07/05 10:51:51;;;;;;;3.13;1.10;;;;;;;18.20;63.98;99826.75;10380850;28;20585;-71
2021/07/05 10:56:54;;;;;;;1.70;1.27;;;;;;;19.08;65.37;99825.75;10353501;28;20246;-71
2021/07/05 11:01:59;;;;;;;1.35;1.00;;;;;;;18.87;59.44;99821.16;10355921;28;20231;-71
2021/07/05 11:07:14;;;;;;;1.05;1.05;;;;;;;18.67;61.12;99830.91;10357125;28;20242;-72
2021/07/05 11:12:28;;;;;;;0.95;0.95;;;;;;;18.43;59.16;99826.63;10354561;28;20775;-72
2021/07/05 11:17:37;;;;;;;1.00;0.90;;;;;;;18.02;62.11;99827.09;10353456;28;20608;-72
2021/07/05 11:22:52;;;;;;;3.33;1.08;;;;;;;18.58;60.88;99838.34;10354682;28;20379;-72
2021/07/05 11:27:58;;;;;;;1.55;1.05;;;;;;;19.22;57.62;99821.28;10365412;28;20246;-72
2021/07/05 11:33:23;;;;;;;1.38;1.23;;;;;;;19.88;53.11;99815.56;10355736;28;20238;-73
2021/07/05 11:38:32;;;;;;;1.33;0.73;;;;;;;21.73;49.77;99806.34;10354023;28;20242;-73
2021/07/05 11:43:53;;;;;;;3.13;1.17;;;;;;;20.81;53.17;99821.53;10352410;28;20234;-73
2021/07/05 11:49:00;;;;;;;1.38;1.20;;;;;;;21.84;49.55;99808.47;10352111;28;20242;-73
2021/07/05 11:54:05;;;;;;;2.38;1.35;;;;;;;22.41;45.85;99822.44;10352738;28;20607;-74
2021/07/05 11:59:09;;;;;;;1.40;1.30;;;;;;;21.63;48.11;99814.97;10356274;28;20234;-73
2021/07/05 12:04:14;;;;;;;1.50;1.40;;;;;;;22.98;44.76;99811.66;10353103;28;20235;-74
2021/07/05 12:09:18;;;;;;;4.00;1.58;;;;;;;24.00;44.71;99809.66;10351516;28;20853;-74
2021/07/05 12:14:25;;;;;;;1.77;1.60;;;;;;;22.78;45.48;99809.03;10350810;28;20611;-73
2021/07/05 12:19:31;;;;;;;1.92;1.65;;;;;;;22.68;45.61;99806.78;10352467;28;20226;-73
2021/07/05 12:24:36;;;;;;;2.35;1.48;;;;;;;22.53;45.10;99806.22;10350449;28;20263;-71
2021/07/05 12:29:43;;;;;;;2.13;1.83;;;;;;;21.84;47.53;99810.38;10350973;28;20602;-71
2021/07/05 12:34:51;;;;;;;2.10;1.85;;;;;;;23.19;46.48;99819.56;10349027;28;20245;-72
2021/07/05 12:39:57;;;;;;;2.80;2.33;;;;;;;22.29;44.94;99822.25;10349085;28;20234;-72
2021/07/05 12:45:03;;;;;;;2.60;2.40;;;;;;;22.31;45.69;99809.19;10352288;28;20616;-72
2021/07/05 12:50:08;;;;;;;3.20;2.30;;;;;;;22.70;45.29;99809.28;10351512;28;20239;-72
2021/07/05 12:55:12;;;;;;;3.80;2.45;;;;;;;23.54;44.02;99808.13;10349060;28;20234;-73
2021/07/05 13:00:16;;;;;;;2.33;2.13;;;;;;;23.83;43.39;99801.19;10350516;28;20230;-72
2021/07/05 13:05:23;;;;;;;4.65;2.25;;;;;;;23.62;44.49;99807.88;10348116;28;20230;-73
2021/07/05 13:10:28;;;;;;;4.57;2.88;;;;;;;24.26;42.14;99807.69;10350702;28;20998;-73
2021/07/05 13:15:34;;;;;;;11.68;3.30;;;;;;;25.44;39.59;99802.75;10350263;28;20346;-72
2021/07/05 13:20:38;;;;;;;4.55;2.67;;;;;;;25.80;38.09;99799.81;10348634;28;20237;-72
2021/07/05 13:25:53;;;;;;;4.72;3.00;;;;;;;25.03;39.07;99798.94;10350270;28;20238;-73
2021/07/05 13:30:56;;;;;;;5.05;3.17;;;;;;;25.30;42.25;99794.69;10349442;28;20278;-73
2021/07/05 13:36:01;;;;;;;5.15;3.20;;;;;;;24.74;40.42;99791.28;10349905;28;20801;-73
2021/07/05 13:41:06;;;;;;;3.63;3.30;;;;;;;25.90;39.89;99782.72;10349336;28;20369;-72
2021/07/05 13:46:14;;;;;;;7.32;3.75;;;;;;;25.63;38.78;99790.56;10349508;28;20614;-72
2021/07/05 13:51:18;;;;;;;4.80;3.92;;;;;;;23.17;42.79;99799.75;10347615;28;20234;-71
2021/07/05 13:56:22;;;;;;;4.07;3.40;;;;;;;23.15;44.20;99795.59;10346146;28;20238;-72
2021/07/05 14:01:28;;;;;;;7.43;3.70;;;;;;;24.54;42.30;99794.25;10350129;28;20309;-71
2021/07/05 14:06:33;;;;;;;4.40;4.00;;;;;;;24.20;42.79;99800.38;10351748;28;20315;-72
2021/07/05 14:11:35;;;;;;;6.57;3.92;;;;;;;24.26;41.91;99807.69;10348958;28;20234;-72
2021/07/05 14:16:38;;;;;;;4.55;3.75;;;;;;;24.53;42.77;99792.59;10348799;28;20238;-71
2021/07/05 14:21:44;;;;;;;4.95;3.70;;;;;;;25.89;38.39;99789.31;10346950;28;20230;-72
2021/07/05 14:26:47;;;;;;;4.40;4.00;;;;;;;26.14;39.62;99780.78;10350976;28;20234;-73
2021/07/05 14:31:53;;;;;;;6.03;4.43;;;;;;;27.52;37.51;99775.22;10346596;28;20320;-72
2021/07/05 14:36:58;;;;;;;4.70;4.30;;;;;;;27.53;34.21;99773.28;10345193;28;20234;-72
2021/07/05 14:42:01;;;;;;;5.68;4.78;;;;;;;26.25;37.83;99760.69;10348277;28;20234;-72
2021/07/05 14:47:04;;;;;;;6.55;4.88;;;;;;;25.22;38.92;99759.31;10346942;28;20352;-72
2021/07/05 14:52:09;;;;;;;5.18;4.68;;;;;;;25.96;37.91;99750.66;10347434;28;20618;-72
2021/07/05 14:57:16;;;;;;;4.97;4.45;;;;;;;27.15;37.83;99753.63;10348163;28;20622;-73
2021/07/05 15:02:19;;;;;;;5.55;4.78;;;;;;;25.28;38.27;99757.53;10347175;28;20230;-72
2021/07/05 15:07:23;;;;;;;5.50;4.97;;;;;;;26.68;36.72;99744.72;10344685;28;20258;-72
2021/07/05 15:12:26;;;;;;;6.03;5.43;;;;;;;27.74;34.79;99741.34;10345538;28;20226;-72
2021/07/05 15:17:29;;;;;;;6.40;5.40;;;;;;;27.75;36.58;99740.25;10345806;28;20230;-72
2021/07/05 15:22:34;;;;;;;5.50;4.97;;;;;;;25.98;37.80;99743.00;10349346;28;20242;-72
2021/07/05 15:27:37;;;;;;;6.32;5.10;;;;;;;23.64;42.08;99748.16;10353861;28;20239;-72
2021/07/05 15:32:40;;;;;;;7.03;4.82;;;;;;;23.63;41.92;99727.28;10354922;28;20242;-72
2021/07/05 15:37:46;;;;;;;7.05;5.18;;;;;;;25.23;39.48;99727.16;10353449;28;20246;-72
2021/07/05 15:42:49;;;;;;;5.68;5.18;;;;;;;27.24;36.06;99723.72;10353034;28;20291;-72
2021/07/05 15:47:52;;;;;;;6.00;4.70;;;;;;;27.07;36.02;99729.22;10353842;28;20642;-72
2021/07/05 15:52:57;;;;;;;6.65;4.80;;;;;;;26.06;36.41;99729.69;10341617;28;20242;-73
2021/07/05 15:58:00;;;;;;;5.10;4.22;;;;;;;27.31;35.00;99720.78;10324670;28;20253;-73
2021/07/05 16:03:03;;;;;;;4.30;3.70;;;;;;;28.55;32.98;99729.72;10329320;28;20269;-73
2021/07/05 16:08:08;;;;;;;4.18;3.72;;;;;;;27.30;33.53;99719.13;10331189;28;20234;-72
2021/07/05 16:13:11;;;;;;;4.28;3.88;;;;;;;26.34;36.22;99725.34;10332248;28;20727;-73
2021/07/05 16:18:15;;;;;;;5.05;3.30;;;;;;;24.67;38.44;99724.63;10311755;28;20312;-73
2021/07/05 16:23:20;;;;;;;4.47;3.45;;;;;;;22.74;42.35;99734.72;10325729;28;20223;-72
2021/07/05 16:28:23;;;;;;;3.47;2.80;;;;;;;22.02;44.71;99741.34;10311770;28;20239;-73
2021/07/05 16:33:26;;;;;;;4.82;2.88;;;;;;;21.81;45.06;99739.72;10313073;28;20728;-73
2021/07/05 16:38:30;;;;;;;2.60;2.40;;;;;;;21.69;45.51;99742.22;10309494;28;20319;-73
2021/07/05 16:43:33;;;;;;;3.35;2.70;;;;;;;21.89;45.82;99743.06;10341798;28;20614;-72
2021/07/05 16:48:38;;;;;;;4.35;2.65;;;;;;;22.04;45.11;99739.22;10354112;28;20599;-73
2021/07/05 16:53:44;;;;;;;3.55;2.38;;;;;;;21.94;45.46;99736.97;10340155;28;20238;-73
2021/07/05 16:58:47;;;;;;;7.00;2.30;;;;;;;21.80;44.68;99738.88;10338242;28;20235;-72
2021/07/05 17:03:50;;;;;;;4.43;2.15;;;;;;;21.44;45.95;99742.88;10332933;28;20242;-72
2021/07/05 17:08:55;;;;;;;4.03;2.28;;;;;;;21.75;45.27;99738.69;10350644;28;20707;-72
2021/07/05 17:13:58;;;;;;;6.13;2.30;;;;;;;21.95;46.06;99726.84;10342591;28;20616;-72
2021/07/05 17:19:01;;;;;;;2.55;2.05;;;;;;;21.74;46.41;99738.84;10366263;28;20796;-72
2021/07/05 17:24:06;;;;;;;3.50;2.33;;;;;;;21.81;46.45;99732.34;10335225;28;20238;-72
2021/07/05 17:29:09;;;;;;;3.17;2.13;;;;;;;22.40;45.52;99733.19;10321035;28;20235;-71
2021/07/05 17:34:13;;;;;;;2.50;2.17;;;;;;;21.42;46.58;99731.34;10309621;28;20607;-72
2021/07/05 17:39:17;;;;;;;2.92;2.63;;;;;;;21.19;47.52;99730.91;10310707;28;20240;-71
2021/07/05 17:44:20;;;;;;;3.47;2.20;;;;;;;21.74;46.78;99725.19;10308060;28;20238;-72
2021/07/05 17:49:24;;;;;;;3.00;2.50;;;;;;;21.68;47.03;99732.34;10306349;28;20239;-71
2021/07/05 17:54:28;;;;;;;5.00;2.65;;;;;;;21.28;48.47;99734.28;10307688;28;20381;-72
2021/07/05 17:59:31;;;;;;;3.28;2.33;;;;;;;21.06;49.53;99731.75;10306381;28;20235;-72
2021/07/05 18:04:34;;;;;;;3.17;2.22;;;;;;;20.77;49.79;99732.94;10319300;28;20241;-71
2021/07/05 18:09:40;;;;;;;3.88;2.47;;;;;;;20.77;49.55;99731.06;10358329;28;20473;-71
2021/07/05 18:14:43;;;;;;;5.25;2.70;;;;;;;20.56;50.45;99732.03;10346485;28;21560;-72
2021/07/05 18:19:46;;;;;;;3.45;2.33;;;;;;;20.63;50.91;99714.88;10348485;28;20238;-71
2021/07/05 18:24:53;;;;;;;2.90;2.42;;;;;;;20.83;49.90;99728.53;10349410;28;20230;-72
2021/07/05 18:29:57;;;;;;;5.82;3.08;;;;;;;20.77;50.72;99732.94;10326493;28;20438;-72
2021/07/05 18:35:00;;;;;;;3.47;2.40;;;;;;;20.64;51.69;99722.00;10308545;28;20743;-71
2021/07/05 18:40:05;;;;;;;3.70;2.28;;;;;;;20.74;51.91;99734.19;10308171;28;20235;-72
2021/07/05 18:45:10;;;;;;;4.03;2.70;;;;;;;20.75;52.39;99729.56;10309645;28;20735;-72
2021/07/05 18:50:14;;;;;;;5.22;2.92;;;;;;;20.63;52.03;99715.69;10313117;28;20235;-71
2021/07/05 18:55:19;;;;;;;5.18;2.63;;;;;;;20.59;52.79;99703.50;10341357;28;20230;-72
2021/07/05 19:00:22;;;;;;;3.20;2.78;;;;;;;20.46;53.70;99706.19;10357070;28;20233;-72
2021/07/05 19:05:25;;;;;;;3.80;2.25;;;;;;;20.16;54.84;99713.81;10353117;28;21876;-72
2021/07/05 19:10:29;;;;;;;4.35;2.95;;;;;;;20.11;55.38;99711.72;10352910;28;20243;-73
2021/07/05 19:15:32;;;;;;;3.17;2.28;;;;;;;19.87;56.04;99713.91;10354704;28;20245;-73
2021/07/05 19:20:35;;;;;;;2.20;2.08;;;;;;;19.77;56.61;99699.78;10354502;28;20839;-73
2021/07/05 19:25:39;;;;;;;2.60;2.40;;;;;;;19.67;57.02;99707.50;10352495;28;20245;-72
2021/07/05 19:30:43;;;;;;;3.20;2.40;;;;;;;19.56;57.34;99713.53;10355641;28;20238;-73
2021/07/05 19:35:49;;;;;;;2.58;2.30;;;;;;;19.56;57.79;99708.91;10354007;28;20231;-72
2021/07/05 19:40:54;;;;;;;2.53;2.33;;;;;;;19.46;57.60;99719.28;10352129;28;20222;-73
2021/07/05 19:45:56;;;;;;;3.15;2.17;;;;;;;19.38;57.97;99719.44;10351269;28;20881;-72
2021/07/05 19:50:59;;;;;;;2.75;2.25;;;;;;;19.28;58.25;99721.63;10354241;28;20242;-72
2021/07/05 19:56:04;;;;;;;3.05;2.10;;;;;;;19.21;58.58;99724.31;10353715;28;20241;-72
2021/07/05 20:01:07;;;;;;;2.92;2.55;;;;;;;19.17;58.66;99728.47;10359531;28;20737;-72
2021/07/05 20:06:10;;;;;;;3.13;2.22;;;;;;;19.14;58.78;99728.84;10353032;28;20239;-72
2021/07/05 20:11:14;;;;;;;2.30;2.10;;;;;;;19.07;58.63;99715.19;10353596;28;20719;-73
2021/07/05 20:16:18;;;;;;;2.97;2.05;;;;;;;19.04;59.07;99704.72;10352010;28;20230;-73
2021/07/05 20:21:21;;;;;;;3.22;2.22;;;;;;;18.94;59.24;99706.91;10351364;28;20231;-73
2021/07/05 20:26:25;;;;;;;3.80;1.92;;;;;;;18.84;59.99;99711.84;10353364;28;20242;-72
2021/07/05 20:31:28;;;;;;;2.45;2.08;;;;;;;18.74;60.50;99717.59;10355676;28;20613;-73
2021/07/05 20:36:31;;;;;;;3.33;2.30;;;;;;;18.69;60.81;99720.03;10368604;28;20715;-73
2021/07/05 20:41:35;;;;;;;3.38;2.40;;;;;;;18.61;61.51;99718.28;10349987;28;20713;-73
2021/07/05 20:46:39;;;;;;;4.22;2.28;;;;;;;18.51;62.35;99709.59;10351190;28;20720;-73
2021/07/05 20:51:43;;;;;;;2.75;2.38;;;;;;;18.45;62.96;99708.47;10350643;28;20624;-73
2021/07/05 20:56:47;;;;;;;5.93;2.97;;;;;;;18.44;63.40;99709.53;10350594;28;20238;-73
2021/07/05 21:01:50;;;;;;;3.60;3.03;;;;;;;18.40;64.25;99705.50;10353762;28;20237;-73
2021/07/05 21:06:53;;;;;;;3.47;2.58;;;;;;;18.28;65.12;99707.03;10321472;28;20951;-73
2021/07/05 21:11:58;;;;;;;3.83;2.60;;;;;;;18.21;65.82;99698.81;10328282;28;20246;-73
2021/07/05 21:17:01;;;;;;;4.10;2.78;;;;;;;18.12;66.45;99680.91;10335689;28;20803;-73
2021/07/05 21:22:05;;;;;;;3.65;2.53;;;;;;;18.03;67.13;99673.91;10329315;28;21103;-72
2021/07/05 21:27:09;;;;;;;2.97;2.40;;;;;;;18.06;67.18;99668.94;10322052;28;20227;-72
2021/07/05 21:32:12;;;;;;;3.72;2.60;;;;;;;18.09;67.21;99673.97;10309504;28;20231;-72
2021/07/05 21:37:17;;;;;;;3.20;2.90;;;;;;;18.00;67.89;99674.28;10309500;28;20247;-72
2021/07/05 21:42:21;;;;;;;3.85;3.25;;;;;;;17.91;68.13;99679.81;10306148;28;20242;-73
2021/07/05 21:47:24;;;;;;;4.53;3.35;;;;;;;17.91;68.60;99682.53;10309628;28;20246;-73
2021/07/05 21:52:27;;;;;;;7.28;3.38;;;;;;;17.97;68.61;99671.94;10306595;28;20230;-72
2021/07/05 21:57:31;;;;;;;3.47;3.00;;;;;;;17.94;68.77;99662.28;10306193;28;20615;-73
2021/07/05 22:02:34;;;;;;;5.55;3.55;;;;;;;17.92;68.80;99667.06;10307708;28;20739;-72
2021/07/05 22:07:38;;;;;;;4.13;3.50;;;;;;;17.93;68.90;99642.41;10307761;28;20905;-72
2021/07/05 22:12:47;;;;;;;5.43;3.30;;;;;;;17.97;68.95;99651.06;10308408;28;20368;-72
2021/07/05 22:17:51;;;;;;;3.65;3.35;;;;;;;17.95;69.07;99650.38;10306790;28;20648;-72
2021/07/05 22:22:56;;;;;;;4.05;3.50;;;;;;;17.97;69.17;99639.31;10306667;28;20400;-72
2021/07/05 22:28:02;;;;;;;4.28;3.50;;;;;;;17.89;69.56;99630.25;10308380;28;20246;-72
2021/07/05 22:33:05;;;;;;;4.18;3.50;;;;;;;17.87;69.71;99626.88;10319006;28;20235;-72
2021/07/05 22:38:08;;;;;;;6.40;3.80;;;;;;;17.85;69.95;99626.25;10319799;28;20231;-72
2021/07/05 22:43:12;;;;;;;6.32;3.90;;;;;;;17.81;70.20;99624.91;10317982;28;20280;-72
2021/07/05 22:48:15;;;;;;;5.68;3.80;;;;;;;17.85;70.08;99619.94;10319436;28;20242;-72
2021/07/05 22:53:18;;;;;;;4.63;4.10;;;;;;;17.87;70.10;99626.03;10319356;28;20238;-72
2021/07/05 22:58:22;;;;;;;5.38;3.75;;;;;;;17.86;70.13;99610.78;10320668;28;20648;-72
2021/07/05 23:03:25;;;;;;;8.50;4.05;;;;;;;17.84;70.42;99616.38;10321186;28;20864;-72
2021/07/05 23:08:28;;;;;;;5.47;3.92;;;;;;;17.86;70.43;99618.94;10320659;28;20242;-72
2021/07/05 23:13:34;;;;;;;4.82;3.50;;;;;;;17.91;70.29;99611.06;10317796;28;21489;-72
2021/07/05 23:18:37;;;;;;;4.57;3.88;;;;;;;17.87;70.45;99607.00;10320677;28;20357;-72
2021/07/05 23:23:39;;;;;;;4.65;3.75;;;;;;;17.87;70.49;99616.00;10319263;28;20235;-72
2021/07/05 23:28:44;;;;;;;26.92;5.20;;;;;;;17.85;70.73;99615.38;10318862;28;20235;-73
2021/07/05 23:33:47;;;;;;;8.70;3.67;;;;;;;17.90;70.70;99614.78;10319859;28;20241;-73